sensor_id;sensor_type;location;lat;lon;timestamp;temperature;humidity
33927;DHT22;20485;50.992;5.550;2023-05-21T00:02:13;11.50;99.90
33927;DHT22;20485;50.992;5.550;2023-05-21T00:04:43;11.50;99.90
33927;DHT22;20485;50.992;5.550;2023-05-21T00:07:09;11.50;99.90
33927;DHT22;20485;50.992;5.550;2023-05-21T00:09:36;11.40;99.90
33927;DHT22;20485;50.992;5.550;2023-05-21T00:12:06;11.50;99.90
33927;DHT22;20485;50.992;5.550;2023-05-21T00:14:33;11.50;99.90
33927;DHT22;20485;50.992;5.550;2023-05-21T00:16:59;11.40;99.90
33927;DHT22;20485;50.992;5.550;2023-05-21T00:19:24;11.40;99.90
33927;DHT22;20485;50.992;5.550;2023-05-21T00:21:51;11.30;99.90
33927;DHT22;20485;50.992;5.550;2023-05-21T00:24:17;11.30;99.90
33927;DHT22;20485;50.992;5.550;2023-05-21T00:26:43;11.30;99.90
33927;DHT22;20485;50.992;5.550;2023-05-21T00:29:08;11.20;99.90
33927;DHT22;20485;50.992;5.550;2023-05-21T00:31:34;11.10;99.90
33927;DHT22;20485;50.992;5.550;2023-05-21T00:34:00;11.10;99.90
33927;DHT22;20485;50.992;5.550;2023-05-21T00:36:25;11.10;99.90
33927;DHT22;20485;50.992;5.550;2023-05-21T00:38:51;11.10;99.90
33927;DHT22;20485;50.992;5.550;2023-05-21T00:41:18;11.20;99.90
33927;DHT22;20485;50.992;5.550;2023-05-21T00:43:43;11.20;99.90
33927;DHT22;20485;50.992;5.550;2023-05-21T00:46:17;11.20;99.90
33927;DHT22;20485;50.992;5.550;2023-05-21T00:48:44;11.20;99.90
33927;DHT22;20485;50.992;5.550;2023-05-21T00:51:15;11.20;99.90
33927;DHT22;20485;50.992;5.550;2023-05-21T00:53:41;11.20;99.90
33927;DHT22;20485;50.992;5.550;2023-05-21T00:56:07;11.20;99.90
33927;DHT22;20485;50.992;5.550;2023-05-21T00:58:34;11.10;99.90
33927;DHT22;20485;50.992;5.550;2023-05-21T01:01:00;11.10;99.90
33927;DHT22;20485;50.992;5.550;2023-05-21T01:03:29;11.20;99.90
33927;DHT22;20485;50.992;5.550;2023-05-21T01:05:55;11.30;99.90
33927;DHT22;20485;50.992;5.550;2023-05-21T01:08:25;11.30;99.90
33927;DHT22;20485;50.992;5.550;2023-05-21T01:10:53;11.20;99.90
33927;DHT22;20485;50.992;5.550;2023-05-21T01:13:20;11.20;99.90
33927;DHT22;20485;50.992;5.550;2023-05-21T01:15:48;11.10;99.90
33927;DHT22;20485;50.992;5.550;2023-05-21T01:18:15;11.10;99.90
33927;DHT22;20485;50.992;5.550;2023-05-21T01:20:41;11.10;99.90
33927;DHT22;20485;50.992;5.550;2023-05-21T01:23:15;11.10;99.90
33927;DHT22;20485;50.992;5.550;2023-05-21T01:25:41;11.00;99.90
33927;DHT22;20485;50.992;5.550;2023-05-21T01:28:07;11.00;99.90
33927;DHT22;20485;50.992;5.550;2023-05-21T01:30:33;11.00;99.90
33927;DHT22;20485;50.992;5.550;2023-05-21T01:33:06;10.90;99.90
33927;DHT22;20485;50.992;5.550;2023-05-21T01:35:34;10.90;99.90
33927;DHT22;20485;50.992;5.550;2023-05-21T01:41:00;10.90;99.90
33927;DHT22;20485;50.992;5.550;2023-05-21T01:43:35;10.90;99.90
33927;DHT22;20485;50.992;5.550;2023-05-21T01:46:01;10.90;99.90
33927;DHT22;20485;50.992;5.550;2023-05-21T01:48:28;10.90;99.90
33927;DHT22;20485;50.992;5.550;2023-05-21T01:50:58;10.80;99.90
33927;DHT22;20485;50.992;5.550;2023-05-21T01:53:24;10.80;99.90
33927;DHT22;20485;50.992;5.550;2023-05-21T01:55:53;10.80;99.90
33927;DHT22;20485;50.992;5.550;2023-05-21T01:58:19;10.80;99.90
33927;DHT22;20485;50.992;5.550;2023-05-21T02:00:46;10.90;99.90
33927;DHT22;20485;50.992;5.550;2023-05-21T02:03:14;10.90;99.90
33927;DHT22;20485;50.992;5.550;2023-05-21T02:05:40;10.90;99.90
33927;DHT22;20485;50.992;5.550;2023-05-21T02:08:06;10.90;99.90
33927;DHT22;20485;50.992;5.550;2023-05-21T02:10:35;11.00;99.90
33927;DHT22;20485;50.992;5.550;2023-05-21T02:13:01;11.10;99.90
33927;DHT22;20485;50.992;5.550;2023-05-21T02:15:27;11.00;99.90
33927;DHT22;20485;50.992;5.550;2023-05-21T02:17:52;11.10;99.90
33927;DHT22;20485;50.992;5.550;2023-05-21T02:20:18;11.00;99.90
33927;DHT22;20485;50.992;5.550;2023-05-21T02:22:46;11.00;99.90
33927;DHT22;20485;50.992;5.550;2023-05-21T02:25:14;11.10;99.90
33927;DHT22;20485;50.992;5.550;2023-05-21T02:27:41;11.10;99.90
33927;DHT22;20485;50.992;5.550;2023-05-21T02:30:09;11.10;99.90
33927;DHT22;20485;50.992;5.550;2023-05-21T02:32:35;11.10;99.90
33927;DHT22;20485;50.992;5.550;2023-05-21T02:35:02;11.20;99.90
33927;DHT22;20485;50.992;5.550;2023-05-21T02:37:30;11.20;99.90
33927;DHT22;20485;50.992;5.550;2023-05-21T02:39:58;11.20;99.90
33927;DHT22;20485;50.992;5.550;2023-05-21T02:42:25;11.20;99.90
33927;DHT22;20485;50.992;5.550;2023-05-21T02:44:51;11.20;99.90
33927;DHT22;20485;50.992;5.550;2023-05-21T02:47:18;11.20;99.90
33927;DHT22;20485;50.992;5.550;2023-05-21T02:49:44;11.20;99.90
33927;DHT22;20485;50.992;5.550;2023-05-21T02:52:10;11.20;99.90
33927;DHT22;20485;50.992;5.550;2023-05-21T02:54:36;11.30;99.90
33927;DHT22;20485;50.992;5.550;2023-05-21T02:57:01;11.30;99.90
33927;DHT22;20485;50.992;5.550;2023-05-21T02:59:27;11.30;99.90
33927;DHT22;20485;50.992;5.550;2023-05-21T03:01:53;11.20;99.90
33927;DHT22;20485;50.992;5.550;2023-05-21T03:04:18;11.20;99.90
33927;DHT22;20485;50.992;5.550;2023-05-21T03:06:48;11.20;99.90
33927;DHT22;20485;50.992;5.550;2023-05-21T03:09:16;11.20;99.90
33927;DHT22;20485;50.992;5.550;2023-05-21T03:11:42;11.20;99.90
33927;DHT22;20485;50.992;5.550;2023-05-21T03:14:08;11.20;99.90
33927;DHT22;20485;50.992;5.550;2023-05-21T03:16:34;11.10;99.90
33927;DHT22;20485;50.992;5.550;2023-05-21T03:19:00;11.20;99.90
33927;DHT22;20485;50.992;5.550;2023-05-21T03:21:26;11.20;99.90
33927;DHT22;20485;50.992;5.550;2023-05-21T03:23:54;11.20;99.90
33927;DHT22;20485;50.992;5.550;2023-05-21T03:26:24;11.20;99.90
33927;DHT22;20485;50.992;5.550;2023-05-21T03:28:52;11.20;99.90
33927;DHT22;20485;50.992;5.550;2023-05-21T03:31:18;11.20;99.90
33927;DHT22;20485;50.992;5.550;2023-05-21T03:33:44;11.10;99.90
33927;DHT22;20485;50.992;5.550;2023-05-21T03:36:10;11.10;99.90
33927;DHT22;20485;50.992;5.550;2023-05-21T03:38:36;11.10;99.90
33927;DHT22;20485;50.992;5.550;2023-05-21T03:41:01;11.20;99.90
33927;DHT22;20485;50.992;5.550;2023-05-21T03:43:27;11.20;99.90
33927;DHT22;20485;50.992;5.550;2023-05-21T03:45:54;11.20;99.90
33927;DHT22;20485;50.992;5.550;2023-05-21T03:48:20;11.20;99.90
33927;DHT22;20485;50.992;5.550;2023-05-21T03:50:45;11.20;99.90
33927;DHT22;20485;50.992;5.550;2023-05-21T03:53:11;11.20;99.90
33927;DHT22;20485;50.992;5.550;2023-05-21T03:55:38;11.20;99.90
33927;DHT22;20485;50.992;5.550;2023-05-21T03:58:03;11.30;99.90
33927;DHT22;20485;50.992;5.550;2023-05-21T04:00:29;11.30;99.90
33927;DHT22;20485;50.992;5.550;2023-05-21T04:02:57;11.30;99.90
33927;DHT22;20485;50.992;5.550;2023-05-21T04:05:23;11.30;99.90
33927;DHT22;20485;50.992;5.550;2023-05-21T04:07:48;11.40;99.90
33927;DHT22;20485;50.992;5.550;2023-05-21T04:10:14;11.40;99.90
33927;DHT22;20485;50.992;5.550;2023-05-21T04:12:40;11.30;99.90
33927;DHT22;20485;50.992;5.550;2023-05-21T04:15:06;11.40;99.90
33927;DHT22;20485;50.992;5.550;2023-05-21T04:17:32;11.30;99.90
33927;DHT22;20485;50.992;5.550;2023-05-21T04:19:59;11.40;99.90
33927;DHT22;20485;50.992;5.550;2023-05-21T04:22:25;11.40;99.90
33927;DHT22;20485;50.992;5.550;2023-05-21T04:24:52;11.40;99.90
33927;DHT22;20485;50.992;5.550;2023-05-21T04:27:49;11.40;99.90
33927;DHT22;20485;50.992;5.550;2023-05-21T04:30:15;11.40;99.90
33927;DHT22;20485;50.992;5.550;2023-05-21T04:32:54;11.50;99.90
33927;DHT22;20485;50.992;5.550;2023-05-21T04:35:20;11.50;99.90
33927;DHT22;20485;50.992;5.550;2023-05-21T04:37:45;11.50;99.90
33927;DHT22;20485;50.992;5.550;2023-05-21T04:40:14;11.60;99.90
33927;DHT22;20485;50.992;5.550;2023-05-21T04:42:49;11.60;99.90
33927;DHT22;20485;50.992;5.550;2023-05-21T04:45:18;11.60;99.90
33927;DHT22;20485;50.992;5.550;2023-05-21T04:47:43;11.70;99.90
33927;DHT22;20485;50.992;5.550;2023-05-21T04:50:09;11.70;99.90
33927;DHT22;20485;50.992;5.550;2023-05-21T04:52:35;11.70;99.90
33927;DHT22;20485;50.992;5.550;2023-05-21T04:55:02;11.80;99.90
33927;DHT22;20485;50.992;5.550;2023-05-21T04:57:27;11.80;99.90
33927;DHT22;20485;50.992;5.550;2023-05-21T04:59:54;11.90;99.90
33927;DHT22;20485;50.992;5.550;2023-05-21T05:02:20;11.90;99.90
33927;DHT22;20485;50.992;5.550;2023-05-21T05:04:46;12.00;99.90
33927;DHT22;20485;50.992;5.550;2023-05-21T05:07:12;12.00;99.90
33927;DHT22;20485;50.992;5.550;2023-05-21T05:09:38;12.00;99.90
33927;DHT22;20485;50.992;5.550;2023-05-21T05:12:04;12.10;99.90
33927;DHT22;20485;50.992;5.550;2023-05-21T05:14:29;12.10;99.90
33927;DHT22;20485;50.992;5.550;2023-05-21T05:16:55;12.10;99.90
33927;DHT22;20485;50.992;5.550;2023-05-21T05:19:25;12.20;99.90
33927;DHT22;20485;50.992;5.550;2023-05-21T05:21:51;12.20;99.90
33927;DHT22;20485;50.992;5.550;2023-05-21T05:24:16;12.40;99.90
33927;DHT22;20485;50.992;5.550;2023-05-21T05:26:42;12.50;99.90
33927;DHT22;20485;50.992;5.550;2023-05-21T05:29:08;12.50;99.90
33927;DHT22;20485;50.992;5.550;2023-05-21T05:31:34;12.60;99.90
33927;DHT22;20485;50.992;5.550;2023-05-21T05:33:59;12.60;99.90
33927;DHT22;20485;50.992;5.550;2023-05-21T05:36:25;12.70;99.90
33927;DHT22;20485;50.992;5.550;2023-05-21T05:38:51;12.80;99.90
33927;DHT22;20485;50.992;5.550;2023-05-21T05:41:17;12.80;99.90
33927;DHT22;20485;50.992;5.550;2023-05-21T05:43:42;12.90;99.90
33927;DHT22;20485;50.992;5.550;2023-05-21T05:46:08;12.90;99.90
33927;DHT22;20485;50.992;5.550;2023-05-21T05:48:34;12.90;99.90
33927;DHT22;20485;50.992;5.550;2023-05-21T05:51:00;13.10;99.90
33927;DHT22;20485;50.992;5.550;2023-05-21T05:53:25;13.20;99.90
33927;DHT22;20485;50.992;5.550;2023-05-21T05:55:51;13.30;99.90
33927;DHT22;20485;50.992;5.550;2023-05-21T05:58:17;13.20;99.90
33927;DHT22;20485;50.992;5.550;2023-05-21T06:00:43;13.20;99.90
33927;DHT22;20485;50.992;5.550;2023-05-21T06:03:09;13.30;99.90
33927;DHT22;20485;50.992;5.550;2023-05-21T06:05:36;13.30;99.90
33927;DHT22;20485;50.992;5.550;2023-05-21T06:08:02;13.40;99.90
33927;DHT22;20485;50.992;5.550;2023-05-21T06:10:28;13.40;99.90
33927;DHT22;20485;50.992;5.550;2023-05-21T06:12:53;13.40;99.90
33927;DHT22;20485;50.992;5.550;2023-05-21T06:15:19;13.40;99.90
33927;DHT22;20485;50.992;5.550;2023-05-21T06:17:45;13.50;99.90
33927;DHT22;20485;50.992;5.550;2023-05-21T06:20:11;13.50;99.90
33927;DHT22;20485;50.992;5.550;2023-05-21T06:22:37;13.50;99.90
33927;DHT22;20485;50.992;5.550;2023-05-21T06:25:03;13.50;99.90
33927;DHT22;20485;50.992;5.550;2023-05-21T06:27:29;13.60;99.90
33927;DHT22;20485;50.992;5.550;2023-05-21T06:29:55;13.60;99.90
33927;DHT22;20485;50.992;5.550;2023-05-21T06:32:21;13.70;99.90
33927;DHT22;20485;50.992;5.550;2023-05-21T06:34:47;13.70;99.90
33927;DHT22;20485;50.992;5.550;2023-05-21T06:37:13;13.80;99.90
33927;DHT22;20485;50.992;5.550;2023-05-21T06:39:39;13.90;99.90
33927;DHT22;20485;50.992;5.550;2023-05-21T06:42:05;13.90;99.90
33927;DHT22;20485;50.992;5.550;2023-05-21T06:44:31;13.80;99.90
33927;DHT22;20485;50.992;5.550;2023-05-21T06:46:56;14.00;99.90
33927;DHT22;20485;50.992;5.550;2023-05-21T06:49:22;14.00;99.90
33927;DHT22;20485;50.992;5.550;2023-05-21T06:51:48;13.90;99.90
33927;DHT22;20485;50.992;5.550;2023-05-21T06:54:13;14.10;99.90
33927;DHT22;20485;50.992;5.550;2023-05-21T06:56:39;14.10;99.90
33927;DHT22;20485;50.992;5.550;2023-05-21T06:59:05;14.10;99.90
33927;DHT22;20485;50.992;5.550;2023-05-21T07:01:30;14.10;99.90
33927;DHT22;20485;50.992;5.550;2023-05-21T07:03:56;14.20;99.90
33927;DHT22;20485;50.992;5.550;2023-05-21T07:06:22;14.20;99.90
33927;DHT22;20485;50.992;5.550;2023-05-21T07:08:48;14.30;99.90
33927;DHT22;20485;50.992;5.550;2023-05-21T07:11:14;14.40;99.90
33927;DHT22;20485;50.992;5.550;2023-05-21T07:13:40;14.40;99.90
33927;DHT22;20485;50.992;5.550;2023-05-21T07:16:06;14.40;99.90
33927;DHT22;20485;50.992;5.550;2023-05-21T07:18:32;14.30;99.90
33927;DHT22;20485;50.992;5.550;2023-05-21T07:20:57;14.40;99.90
33927;DHT22;20485;50.992;5.550;2023-05-21T07:23:23;14.50;99.90
33927;DHT22;20485;50.992;5.550;2023-05-21T07:25:49;14.50;99.90
33927;DHT22;20485;50.992;5.550;2023-05-21T07:28:15;14.70;99.90
33927;DHT22;20485;50.992;5.550;2023-05-21T07:30:41;14.90;99.90
33927;DHT22;20485;50.992;5.550;2023-05-21T07:33:06;15.00;99.90
33927;DHT22;20485;50.992;5.550;2023-05-21T07:35:32;15.20;99.90
33927;DHT22;20485;50.992;5.550;2023-05-21T07:37:58;15.30;99.90
33927;DHT22;20485;50.992;5.550;2023-05-21T07:40:23;15.50;99.90
33927;DHT22;20485;50.992;5.550;2023-05-21T07:42:49;15.60;99.90
33927;DHT22;20485;50.992;5.550;2023-05-21T07:45:15;15.80;99.90
33927;DHT22;20485;50.992;5.550;2023-05-21T07:47:41;15.60;99.90
33927;DHT22;20485;50.992;5.550;2023-05-21T07:50:07;15.50;99.90
33927;DHT22;20485;50.992;5.550;2023-05-21T07:52:33;15.40;99.90
33927;DHT22;20485;50.992;5.550;2023-05-21T07:55:00;15.50;99.90
33927;DHT22;20485;50.992;5.550;2023-05-21T07:57:25;15.70;99.90
33927;DHT22;20485;50.992;5.550;2023-05-21T07:59:52;15.70;99.90
33927;DHT22;20485;50.992;5.550;2023-05-21T08:02:18;15.80;99.90
33927;DHT22;20485;50.992;5.550;2023-05-21T08:04:43;15.80;99.90
33927;DHT22;20485;50.992;5.550;2023-05-21T08:07:09;15.80;99.90
33927;DHT22;20485;50.992;5.550;2023-05-21T08:09:35;15.80;99.90
33927;DHT22;20485;50.992;5.550;2023-05-21T08:12:01;16.00;99.90
33927;DHT22;20485;50.992;5.550;2023-05-21T08:14:26;16.20;99.90
33927;DHT22;20485;50.992;5.550;2023-05-21T08:16:52;16.20;99.90
33927;DHT22;20485;50.992;5.550;2023-05-21T08:19:18;16.20;99.90
33927;DHT22;20485;50.992;5.550;2023-05-21T08:21:43;16.10;99.90
33927;DHT22;20485;50.992;5.550;2023-05-21T08:24:09;16.20;99.90
33927;DHT22;20485;50.992;5.550;2023-05-21T08:26:35;16.20;99.90
33927;DHT22;20485;50.992;5.550;2023-05-21T08:29:01;16.10;99.90
33927;DHT22;20485;50.992;5.550;2023-05-21T08:31:26;16.30;99.90
33927;DHT22;20485;50.992;5.550;2023-05-21T08:33:53;16.50;99.90
33927;DHT22;20485;50.992;5.550;2023-05-21T08:36:20;16.80;99.90
33927;DHT22;20485;50.992;5.550;2023-05-21T08:38:47;16.70;99.90
33927;DHT22;20485;50.992;5.550;2023-05-21T08:41:13;16.70;99.90
33927;DHT22;20485;50.992;5.550;2023-05-21T08:43:39;16.80;99.90
33927;DHT22;20485;50.992;5.550;2023-05-21T08:46:06;17.00;99.90
33927;DHT22;20485;50.992;5.550;2023-05-21T08:48:33;17.00;99.90
33927;DHT22;20485;50.992;5.550;2023-05-21T08:51:01;17.00;99.90
33927;DHT22;20485;50.992;5.550;2023-05-21T08:53:26;16.90;99.90
33927;DHT22;20485;50.992;5.550;2023-05-21T08:55:53;17.10;99.90
33927;DHT22;20485;50.992;5.550;2023-05-21T08:58:22;17.00;99.90
33927;DHT22;20485;50.992;5.550;2023-05-21T09:00:48;17.10;99.90
33927;DHT22;20485;50.992;5.550;2023-05-21T09:03:14;17.10;99.90
33927;DHT22;20485;50.992;5.550;2023-05-21T09:05:41;17.20;99.90
33927;DHT22;20485;50.992;5.550;2023-05-21T09:08:28;17.30;99.90
33927;DHT22;20485;50.992;5.550;2023-05-21T09:10:54;17.30;99.90
33927;DHT22;20485;50.992;5.550;2023-05-21T09:13:19;17.20;99.90
33927;DHT22;20485;50.992;5.550;2023-05-21T09:15:46;17.20;99.90
33927;DHT22;20485;50.992;5.550;2023-05-21T09:18:15;17.20;99.90
33927;DHT22;20485;50.992;5.550;2023-05-21T09:20:41;17.30;99.90
33927;DHT22;20485;50.992;5.550;2023-05-21T09:23:08;17.50;99.90
33927;DHT22;20485;50.992;5.550;2023-05-21T09:25:40;17.70;99.90
33927;DHT22;20485;50.992;5.550;2023-05-21T09:28:13;17.70;99.90
33927;DHT22;20485;50.992;5.550;2023-05-21T09:30:51;17.70;99.90
33927;DHT22;20485;50.992;5.550;2023-05-21T09:33:26;17.80;99.90
33927;DHT22;20485;50.992;5.550;2023-05-21T09:35:51;17.70;99.90
33927;DHT22;20485;50.992;5.550;2023-05-21T09:38:17;17.70;99.90
33927;DHT22;20485;50.992;5.550;2023-05-21T09:40:46;17.80;99.90
33927;DHT22;20485;50.992;5.550;2023-05-21T09:43:15;17.70;99.90
33927;DHT22;20485;50.992;5.550;2023-05-21T09:45:54;17.70;99.90
33927;DHT22;20485;50.992;5.550;2023-05-21T09:48:39;17.70;99.90
33927;DHT22;20485;50.992;5.550;2023-05-21T09:51:16;17.80;99.90
33927;DHT22;20485;50.992;5.550;2023-05-21T09:53:50;17.90;99.90
33927;DHT22;20485;50.992;5.550;2023-05-21T09:56:28;17.90;99.90
33927;DHT22;20485;50.992;5.550;2023-05-21T09:59:01;18.00;99.90
33927;DHT22;20485;50.992;5.550;2023-05-21T10:01:30;18.40;99.90
33927;DHT22;20485;50.992;5.550;2023-05-21T10:03:59;17.90;99.90
33927;DHT22;20485;50.992;5.550;2023-05-21T10:06:26;17.90;99.90
33927;DHT22;20485;50.992;5.550;2023-05-21T10:08:54;18.00;99.90
33927;DHT22;20485;50.992;5.550;2023-05-21T10:11:25;18.10;99.90
33927;DHT22;20485;50.992;5.550;2023-05-21T10:14:02;18.00;99.90
33927;DHT22;20485;50.992;5.550;2023-05-21T10:16:29;18.10;99.90
33927;DHT22;20485;50.992;5.550;2023-05-21T10:18:56;18.30;99.90
33927;DHT22;20485;50.992;5.550;2023-05-21T10:21:23;18.50;99.90
33927;DHT22;20485;50.992;5.550;2023-05-21T10:23:50;18.70;99.90
33927;DHT22;20485;50.992;5.550;2023-05-21T10:26:21;18.60;99.90
33927;DHT22;20485;50.992;5.550;2023-05-21T10:28:50;18.70;99.90
33927;DHT22;20485;50.992;5.550;2023-05-21T10:31:17;18.90;99.90
33927;DHT22;20485;50.992;5.550;2023-05-21T10:33:43;18.80;99.90
33927;DHT22;20485;50.992;5.550;2023-05-21T10:36:08;19.00;99.90
33927;DHT22;20485;50.992;5.550;2023-05-21T10:38:36;18.90;99.90
33927;DHT22;20485;50.992;5.550;2023-05-21T10:41:06;19.00;99.90
33927;DHT22;20485;50.992;5.550;2023-05-21T10:44:01;19.20;99.90
33927;DHT22;20485;50.992;5.550;2023-05-21T10:49:40;19.00;99.90
33927;DHT22;20485;50.992;5.550;2023-05-21T10:52:33;18.80;99.90
33927;DHT22;20485;50.992;5.550;2023-05-21T10:55:06;18.60;99.90
33927;DHT22;20485;50.992;5.550;2023-05-21T11:00:19;18.50;99.90
33927;DHT22;20485;50.992;5.550;2023-05-21T11:02:47;18.70;99.90
33927;DHT22;20485;50.992;5.550;2023-05-21T11:05:13;18.90;99.90
33927;DHT22;20485;50.992;5.550;2023-05-21T11:07:52;19.00;99.90
33927;DHT22;20485;50.992;5.550;2023-05-21T11:10:36;19.00;99.90
33927;DHT22;20485;50.992;5.550;2023-05-21T11:13:15;19.20;99.90
33927;DHT22;20485;50.992;5.550;2023-05-21T11:18:22;19.40;99.90
33927;DHT22;20485;50.992;5.550;2023-05-21T11:20:51;19.40;99.90
33927;DHT22;20485;50.992;5.550;2023-05-21T11:23:19;19.40;99.90
33927;DHT22;20485;50.992;5.550;2023-05-21T11:25:59;19.60;99.90
33927;DHT22;20485;50.992;5.550;2023-05-21T11:28:32;19.70;99.90
33927;DHT22;20485;50.992;5.550;2023-05-21T11:31:28;19.80;99.90
33927;DHT22;20485;50.992;5.550;2023-05-21T11:34:11;19.80;99.90
33927;DHT22;20485;50.992;5.550;2023-05-21T11:36:38;19.80;99.90
33927;DHT22;20485;50.992;5.550;2023-05-21T11:41:56;20.10;99.90
33927;DHT22;20485;50.992;5.550;2023-05-21T11:44:43;20.40;99.90
33927;DHT22;20485;50.992;5.550;2023-05-21T11:47:10;20.60;99.90
33927;DHT22;20485;50.992;5.550;2023-05-21T11:49:37;20.70;99.90
33927;DHT22;20485;50.992;5.550;2023-05-21T11:52:04;20.90;99.90
33927;DHT22;20485;50.992;5.550;2023-05-21T11:54:32;20.80;99.90
33927;DHT22;20485;50.992;5.550;2023-05-21T11:57:04;20.40;99.90
33927;DHT22;20485;50.992;5.550;2023-05-21T11:59:31;20.40;99.90
33927;DHT22;20485;50.992;5.550;2023-05-21T12:01:57;20.40;99.90
33927;DHT22;20485;50.992;5.550;2023-05-21T12:04:28;20.70;99.90
33927;DHT22;20485;50.992;5.550;2023-05-21T12:06:54;20.80;99.90
33927;DHT22;20485;50.992;5.550;2023-05-21T12:09:19;21.10;99.90
33927;DHT22;20485;50.992;5.550;2023-05-21T12:11:46;21.20;99.90
33927;DHT22;20485;50.992;5.550;2023-05-21T12:14:11;21.20;99.90
33927;DHT22;20485;50.992;5.550;2023-05-21T12:16:38;21.20;99.90
33927;DHT22;20485;50.992;5.550;2023-05-21T12:19:05;21.20;99.90
33927;DHT22;20485;50.992;5.550;2023-05-21T12:21:30;21.30;99.90
33927;DHT22;20485;50.992;5.550;2023-05-21T12:23:57;21.10;99.90
33927;DHT22;20485;50.992;5.550;2023-05-21T12:26:23;20.80;99.90
33927;DHT22;20485;50.992;5.550;2023-05-21T12:28:55;20.90;99.90
33927;DHT22;20485;50.992;5.550;2023-05-21T12:31:22;21.10;99.90
33927;DHT22;20485;50.992;5.550;2023-05-21T12:33:49;21.20;99.90
33927;DHT22;20485;50.992;5.550;2023-05-21T12:36:26;21.40;99.90
33927;DHT22;20485;50.992;5.550;2023-05-21T12:38:52;21.60;99.90
33927;DHT22;20485;50.992;5.550;2023-05-21T12:41:18;21.90;99.90
33927;DHT22;20485;50.992;5.550;2023-05-21T12:43:45;21.90;99.90
33927;DHT22;20485;50.992;5.550;2023-05-21T12:46:11;21.80;99.90
33927;DHT22;20485;50.992;5.550;2023-05-21T12:48:57;21.80;99.90
33927;DHT22;20485;50.992;5.550;2023-05-21T12:51:23;22.10;99.90
33927;DHT22;20485;50.992;5.550;2023-05-21T12:53:49;22.10;99.90
33927;DHT22;20485;50.992;5.550;2023-05-21T12:56:17;22.20;99.90
33927;DHT22;20485;50.992;5.550;2023-05-21T12:58:49;22.30;99.90
33927;DHT22;20485;50.992;5.550;2023-05-21T13:01:14;22.30;99.90
33927;DHT22;20485;50.992;5.550;2023-05-21T13:03:41;22.30;99.90
33927;DHT22;20485;50.992;5.550;2023-05-21T13:06:07;22.30;99.90
33927;DHT22;20485;50.992;5.550;2023-05-21T13:08:34;22.10;99.90
33927;DHT22;20485;50.992;5.550;2023-05-21T13:11:03;21.90;99.90
33927;DHT22;20485;50.992;5.550;2023-05-21T13:13:30;22.10;99.90
33927;DHT22;20485;50.992;5.550;2023-05-21T13:15:56;22.30;99.90
33927;DHT22;20485;50.992;5.550;2023-05-21T13:18:21;22.80;99.90
33927;DHT22;20485;50.992;5.550;2023-05-21T13:20:47;22.80;99.90
33927;DHT22;20485;50.992;5.550;2023-05-21T13:23:14;22.80;99.90
33927;DHT22;20485;50.992;5.550;2023-05-21T13:25:40;22.90;99.90
33927;DHT22;20485;50.992;5.550;2023-05-21T13:28:06;23.10;99.90
33927;DHT22;20485;50.992;5.550;2023-05-21T13:30:35;23.20;99.90
33927;DHT22;20485;50.992;5.550;2023-05-21T13:33:01;23.10;99.90
33927;DHT22;20485;50.992;5.550;2023-05-21T13:35:27;23.40;99.90
33927;DHT22;20485;50.992;5.550;2023-05-21T13:38:01;23.30;99.90
33927;DHT22;20485;50.992;5.550;2023-05-21T13:40:27;23.10;99.90
33927;DHT22;20485;50.992;5.550;2023-05-21T13:42:53;23.10;99.90
33927;DHT22;20485;50.992;5.550;2023-05-21T13:45:19;23.20;99.90
33927;DHT22;20485;50.992;5.550;2023-05-21T13:47:46;23.40;99.90
33927;DHT22;20485;50.992;5.550;2023-05-21T13:50:13;23.50;99.90
33927;DHT22;20485;50.992;5.550;2023-05-21T13:52:39;23.60;99.90
33927;DHT22;20485;50.992;5.550;2023-05-21T13:55:05;23.40;99.90
33927;DHT22;20485;50.992;5.550;2023-05-21T13:57:31;23.30;99.90
33927;DHT22;20485;50.992;5.550;2023-05-21T14:00:00;23.10;99.90
33927;DHT22;20485;50.992;5.550;2023-05-21T14:02:25;22.90;99.90
33927;DHT22;20485;50.992;5.550;2023-05-21T14:04:51;22.90;99.90
33927;DHT22;20485;50.992;5.550;2023-05-21T14:07:17;22.70;99.90
33927;DHT22;20485;50.992;5.550;2023-05-21T14:09:42;22.80;99.90
33927;DHT22;20485;50.992;5.550;2023-05-21T14:12:08;23.00;99.90
33927;DHT22;20485;50.992;5.550;2023-05-21T14:14:34;23.20;99.90
33927;DHT22;20485;50.992;5.550;2023-05-21T14:17:00;23.40;99.90
33927;DHT22;20485;50.992;5.550;2023-05-21T14:19:26;23.50;99.90
33927;DHT22;20485;50.992;5.550;2023-05-21T14:21:51;23.50;99.90
33927;DHT22;20485;50.992;5.550;2023-05-21T14:24:17;23.70;99.90
33927;DHT22;20485;50.992;5.550;2023-05-21T14:26:43;23.90;99.90
33927;DHT22;20485;50.992;5.550;2023-05-21T14:29:09;24.10;99.90
33927;DHT22;20485;50.992;5.550;2023-05-21T14:31:35;23.80;99.90
33927;DHT22;20485;50.992;5.550;2023-05-21T14:34:01;24.00;99.90
33927;DHT22;20485;50.992;5.550;2023-05-21T14:36:32;23.80;99.90
33927;DHT22;20485;50.992;5.550;2023-05-21T14:38:57;24.10;99.90
33927;DHT22;20485;50.992;5.550;2023-05-21T14:41:24;24.30;99.90
33927;DHT22;20485;50.992;5.550;2023-05-21T14:43:53;24.30;99.90
33927;DHT22;20485;50.992;5.550;2023-05-21T14:46:19;24.30;99.90
33927;DHT22;20485;50.992;5.550;2023-05-21T14:48:45;24.30;99.90
33927;DHT22;20485;50.992;5.550;2023-05-21T14:51:11;24.30;99.90
33927;DHT22;20485;50.992;5.550;2023-05-21T14:53:38;24.60;99.90
33927;DHT22;20485;50.992;5.550;2023-05-21T14:56:05;24.80;99.90
33927;DHT22;20485;50.992;5.550;2023-05-21T14:58:30;24.60;99.90
33927;DHT22;20485;50.992;5.550;2023-05-21T15:00:56;24.30;99.90
33927;DHT22;20485;50.992;5.550;2023-05-21T15:03:22;24.40;99.90
33927;DHT22;20485;50.992;5.550;2023-05-21T15:05:47;24.30;99.90
33927;DHT22;20485;50.992;5.550;2023-05-21T15:08:13;23.90;99.90
33927;DHT22;20485;50.992;5.550;2023-05-21T15:10:39;24.10;99.90
33927;DHT22;20485;50.992;5.550;2023-05-21T15:13:04;24.50;99.90
33927;DHT22;20485;50.992;5.550;2023-05-21T15:15:30;24.90;99.90
33927;DHT22;20485;50.992;5.550;2023-05-21T15:17:56;25.80;99.90
33927;DHT22;20485;50.992;5.550;2023-05-21T15:20:23;26.80;99.90
33927;DHT22;20485;50.992;5.550;2023-05-21T15:22:49;26.70;99.90
33927;DHT22;20485;50.992;5.550;2023-05-21T15:25:15;27.40;99.90
33927;DHT22;20485;50.992;5.550;2023-05-21T15:27:43;28.70;99.90
33927;DHT22;20485;50.992;5.550;2023-05-21T15:30:09;29.60;99.90
33927;DHT22;20485;50.992;5.550;2023-05-21T15:32:35;28.50;99.90
33927;DHT22;20485;50.992;5.550;2023-05-21T15:35:04;29.20;99.90
33927;DHT22;20485;50.992;5.550;2023-05-21T15:37:31;29.30;99.90
33927;DHT22;20485;50.992;5.550;2023-05-21T15:39:57;28.60;99.90
33927;DHT22;20485;50.992;5.550;2023-05-21T15:42:23;29.00;99.90
33927;DHT22;20485;50.992;5.550;2023-05-21T15:44:49;29.20;99.70
33927;DHT22;20485;50.992;5.550;2023-05-21T15:47:15;29.30;99.90